Terminal Aerodrome Forecast
Issued by NWS

Home | Current Version | Previous Version | Text Only | Print | Product List | Glossary On
Versions: 1 2 3 4 5 6 7 8 9 10 11 12 13 14 15
479
FTAK31 PAJN 300520
TAFAPG
TAF
PAPG 300520Z 3006/3106 04005KT P6SM -SHRA SCT015 BKN035 OVC060
      TEMPO 3006/3008 5SM -SHRA BKN025
     FM300800 00000KT P6SM VCSH FEW007 SCT015 BKN025
     FM301100 00000KT 5SM BR BKN007 OVC015
     FM301600 05004KT P6SM SCT008 BKN015 OVC040
     FM302100 05006KT P6SM SCT025 BKN045
      AMD LTD TO CLD VIS AND WIND 3006/3015=

USA.gov is the U.S. government's official web portal to all federal, state and local government web resources and services.